sensor_id;sensor_type;location;lat;lon;timestamp;P1;durP1;ratioP1;P2;durP2;ratioP2
47866;SDS011;33628;50.806;11.586;2023-07-20T00:00:09;9.77;;;4.32;;
47866;SDS011;33628;50.806;11.586;2023-07-20T00:02:39;6.15;;;3.63;;
47866;SDS011;33628;50.806;11.586;2023-07-20T00:05:06;5.32;;;3.55;;
47866;SDS011;33628;50.806;11.586;2023-07-20T00:07:33;5.72;;;3.90;;
47866;SDS011;33628;50.806;11.586;2023-07-20T00:10:00;10.35;;;3.90;;
47866;SDS011;33628;50.806;11.586;2023-07-20T00:12:27;8.50;;;4.00;;
47866;SDS011;33628;50.806;11.586;2023-07-20T00:14:55;5.95;;;3.75;;
47866;SDS011;33628;50.806;11.586;2023-07-20T00:17:21;5.85;;;3.60;;
47866;SDS011;33628;50.806;11.586;2023-07-20T00:19:48;6.70;;;3.97;;
47866;SDS011;33628;50.806;11.586;2023-07-20T00:22:15;6.35;;;3.55;;
47866;SDS011;33628;50.806;11.586;2023-07-20T00:24:42;8.48;;;3.70;;
47866;SDS011;33628;50.806;11.586;2023-07-20T00:27:09;4.35;;;3.58;;
47866;SDS011;33628;50.806;11.586;2023-07-20T00:29:35;6.07;;;3.75;;
47866;SDS011;33628;50.806;11.586;2023-07-20T00:32:04;5.65;;;4.07;;
47866;SDS011;33628;50.806;11.586;2023-07-20T00:34:32;5.60;;;4.03;;
47866;SDS011;33628;50.806;11.586;2023-07-20T00:36:59;4.80;;;3.83;;
47866;SDS011;33628;50.806;11.586;2023-07-20T00:39:25;9.80;;;4.05;;
47866;SDS011;33628;50.806;11.586;2023-07-20T00:41:52;6.43;;;4.00;;
47866;SDS011;33628;50.806;11.586;2023-07-20T00:44:19;6.78;;;3.70;;
47866;SDS011;33628;50.806;11.586;2023-07-20T00:46:46;5.28;;;4.05;;
47866;SDS011;33628;50.806;11.586;2023-07-20T00:49:15;8.15;;;4.05;;
47866;SDS011;33628;50.806;11.586;2023-07-20T00:51:42;11.57;;;4.57;;
47866;SDS011;33628;50.806;11.586;2023-07-20T00:54:09;9.15;;;4.43;;
47866;SDS011;33628;50.806;11.586;2023-07-20T00:56:35;6.68;;;4.82;;
47866;SDS011;33628;50.806;11.586;2023-07-20T00:59:02;7.70;;;4.10;;
47866;SDS011;33628;50.806;11.586;2023-07-20T01:01:29;6.20;;;4.03;;
47866;SDS011;33628;50.806;11.586;2023-07-20T01:03:56;7.13;;;3.80;;
47866;SDS011;33628;50.806;11.586;2023-07-20T01:06:26;5.75;;;3.83;;
47866;SDS011;33628;50.806;11.586;2023-07-20T01:08:57;6.53;;;4.13;;
47866;SDS011;33628;50.806;11.586;2023-07-20T01:11:29;11.50;;;4.60;;
47866;SDS011;33628;50.806;11.586;2023-07-20T01:13:59;6.60;;;3.92;;
47866;SDS011;33628;50.806;11.586;2023-07-20T01:16:26;5.75;;;4.13;;
47866;SDS011;33628;50.806;11.586;2023-07-20T01:18:53;6.55;;;3.88;;
47866;SDS011;33628;50.806;11.586;2023-07-20T01:21:21;5.88;;;4.00;;
47866;SDS011;33628;50.806;11.586;2023-07-20T01:24:04;6.18;;;3.83;;
47866;SDS011;33628;50.806;11.586;2023-07-20T01:26:45;4.18;;;3.63;;
47866;SDS011;33628;50.806;11.586;2023-07-20T01:29:22;10.30;;;4.10;;
47866;SDS011;33628;50.806;11.586;2023-07-20T01:31:55;9.38;;;3.85;;
47866;SDS011;33628;50.806;11.586;2023-07-20T01:34:23;7.45;;;4.00;;
47866;SDS011;33628;50.806;11.586;2023-07-20T01:36:52;8.68;;;4.22;;
47866;SDS011;33628;50.806;11.586;2023-07-20T01:39:19;7.43;;;4.55;;
47866;SDS011;33628;50.806;11.586;2023-07-20T01:41:47;6.50;;;4.45;;
47866;SDS011;33628;50.806;11.586;2023-07-20T01:44:14;6.28;;;4.35;;
47866;SDS011;33628;50.806;11.586;2023-07-20T01:46:41;7.97;;;4.43;;
47866;SDS011;33628;50.806;11.586;2023-07-20T01:49:09;8.27;;;4.57;;
47866;SDS011;33628;50.806;11.586;2023-07-20T01:51:36;6.65;;;3.95;;
47866;SDS011;33628;50.806;11.586;2023-07-20T01:54:03;6.47;;;3.80;;
47866;SDS011;33628;50.806;11.586;2023-07-20T01:56:30;7.13;;;3.80;;
47866;SDS011;33628;50.806;11.586;2023-07-20T01:58:56;20.63;;;4.70;;
47866;SDS011;33628;50.806;11.586;2023-07-20T02:01:23;21.70;;;4.43;;
47866;SDS011;33628;50.806;11.586;2023-07-20T02:03:50;39.70;;;5.45;;
47866;SDS011;33628;50.806;11.586;2023-07-20T02:06:18;27.80;;;6.05;;
47866;SDS011;33628;50.806;11.586;2023-07-20T02:08:45;48.15;;;5.75;;
47866;SDS011;33628;50.806;11.586;2023-07-20T02:11:11;16.48;;;5.63;;
47866;SDS011;33628;50.806;11.586;2023-07-20T02:13:38;13.38;;;5.88;;
47866;SDS011;33628;50.806;11.586;2023-07-20T02:16:05;15.82;;;6.53;;
47866;SDS011;33628;50.806;11.586;2023-07-20T02:18:32;23.27;;;6.28;;
47866;SDS011;33628;50.806;11.586;2023-07-20T02:20:59;10.75;;;6.55;;
47866;SDS011;33628;50.806;11.586;2023-07-20T02:23:27;26.05;;;6.55;;
47866;SDS011;33628;50.806;11.586;2023-07-20T02:25:53;16.85;;;7.45;;
47866;SDS011;33628;50.806;11.586;2023-07-20T02:28:20;21.70;;;7.32;;
47866;SDS011;33628;50.806;11.586;2023-07-20T02:30:47;23.02;;;7.13;;
47866;SDS011;33628;50.806;11.586;2023-07-20T02:33:15;17.92;;;6.82;;
47866;SDS011;33628;50.806;11.586;2023-07-20T02:35:42;20.17;;;7.57;;
47866;SDS011;33628;50.806;11.586;2023-07-20T02:38:09;12.95;;;7.55;;
47866;SDS011;33628;50.806;11.586;2023-07-20T02:40:37;18.67;;;7.05;;
47866;SDS011;33628;50.806;11.586;2023-07-20T02:43:03;19.40;;;8.93;;
47866;SDS011;33628;50.806;11.586;2023-07-20T02:45:30;15.73;;;7.03;;
47866;SDS011;33628;50.806;11.586;2023-07-20T02:47:57;16.92;;;7.68;;
47866;SDS011;33628;50.806;11.586;2023-07-20T02:50:23;22.45;;;7.18;;
47866;SDS011;33628;50.806;11.586;2023-07-20T02:52:50;13.88;;;7.32;;
47866;SDS011;33628;50.806;11.586;2023-07-20T02:55:17;15.05;;;6.70;;
47866;SDS011;33628;50.806;11.586;2023-07-20T02:57:45;15.98;;;7.00;;
47866;SDS011;33628;50.806;11.586;2023-07-20T03:00:12;12.32;;;6.93;;
47866;SDS011;33628;50.806;11.586;2023-07-20T03:02:41;10.02;;;6.57;;
47866;SDS011;33628;50.806;11.586;2023-07-20T03:05:08;11.35;;;7.25;;
47866;SDS011;33628;50.806;11.586;2023-07-20T03:07:35;14.07;;;7.10;;
47866;SDS011;33628;50.806;11.586;2023-07-20T03:10:02;16.17;;;7.63;;
47866;SDS011;33628;50.806;11.586;2023-07-20T03:12:29;11.52;;;6.75;;
47866;SDS011;33628;50.806;11.586;2023-07-20T03:14:58;10.10;;;7.00;;
47866;SDS011;33628;50.806;11.586;2023-07-20T03:17:25;10.55;;;7.40;;
47866;SDS011;33628;50.806;11.586;2023-07-20T03:19:52;13.25;;;7.50;;
47866;SDS011;33628;50.806;11.586;2023-07-20T03:22:18;17.75;;;7.32;;
47866;SDS011;33628;50.806;11.586;2023-07-20T03:24:45;14.57;;;7.93;;
47866;SDS011;33628;50.806;11.586;2023-07-20T03:27:12;16.25;;;7.82;;
47866;SDS011;33628;50.806;11.586;2023-07-20T03:29:38;16.92;;;8.13;;
47866;SDS011;33628;50.806;11.586;2023-07-20T03:32:07;15.45;;;7.40;;
47866;SDS011;33628;50.806;11.586;2023-07-20T03:34:35;15.45;;;7.55;;
47866;SDS011;33628;50.806;11.586;2023-07-20T03:37:02;10.77;;;7.78;;
47866;SDS011;33628;50.806;11.586;2023-07-20T03:39:30;17.13;;;7.82;;
47866;SDS011;33628;50.806;11.586;2023-07-20T03:41:57;26.55;;;8.20;;
47866;SDS011;33628;50.806;11.586;2023-07-20T03:44:25;20.17;;;7.57;;
47866;SDS011;33628;50.806;11.586;2023-07-20T03:46:51;15.07;;;7.38;;
47866;SDS011;33628;50.806;11.586;2023-07-20T03:49:19;9.18;;;6.55;;
47866;SDS011;33628;50.806;11.586;2023-07-20T03:51:46;10.38;;;6.55;;
47866;SDS011;33628;50.806;11.586;2023-07-20T03:54:13;13.07;;;6.53;;
47866;SDS011;33628;50.806;11.586;2023-07-20T03:56:39;15.30;;;6.72;;
47866;SDS011;33628;50.806;11.586;2023-07-20T03:59:06;13.15;;;7.10;;
47866;SDS011;33628;50.806;11.586;2023-07-20T04:01:33;15.05;;;6.95;;
47866;SDS011;33628;50.806;11.586;2023-07-20T04:04:04;7.40;;;6.40;;
47866;SDS011;33628;50.806;11.586;2023-07-20T04:06:34;13.48;;;7.30;;
47866;SDS011;33628;50.806;11.586;2023-07-20T04:09:00;10.45;;;6.18;;
47866;SDS011;33628;50.806;11.586;2023-07-20T04:11:27;11.63;;;6.20;;
47866;SDS011;33628;50.806;11.586;2023-07-20T04:13:54;8.32;;;6.40;;
47866;SDS011;33628;50.806;11.586;2023-07-20T04:16:22;10.77;;;6.68;;
47866;SDS011;33628;50.806;11.586;2023-07-20T04:18:48;11.52;;;7.63;;
47866;SDS011;33628;50.806;11.586;2023-07-20T04:21:15;12.27;;;6.85;;
47866;SDS011;33628;50.806;11.586;2023-07-20T04:23:43;7.35;;;6.10;;
47866;SDS011;33628;50.806;11.586;2023-07-20T04:26:10;7.25;;;6.50;;
47866;SDS011;33628;50.806;11.586;2023-07-20T04:28:38;7.35;;;5.50;;
47866;SDS011;33628;50.806;11.586;2023-07-20T04:31:11;7.97;;;5.32;;
47866;SDS011;33628;50.806;11.586;2023-07-20T04:33:39;7.10;;;4.65;;
47866;SDS011;33628;50.806;11.586;2023-07-20T04:36:06;7.90;;;5.25;;
47866;SDS011;33628;50.806;11.586;2023-07-20T04:38:35;8.10;;;5.55;;
47866;SDS011;33628;50.806;11.586;2023-07-20T04:41:12;14.35;;;6.03;;
47866;SDS011;33628;50.806;11.586;2023-07-20T04:43:42;12.48;;;6.20;;
47866;SDS011;33628;50.806;11.586;2023-07-20T04:46:10;14.90;;;5.93;;
47866;SDS011;33628;50.806;11.586;2023-07-20T04:48:37;9.82;;;6.03;;
47866;SDS011;33628;50.806;11.586;2023-07-20T04:51:04;19.23;;;6.40;;
47866;SDS011;33628;50.806;11.586;2023-07-20T04:53:31;11.30;;;6.10;;
47866;SDS011;33628;50.806;11.586;2023-07-20T04:55:58;12.55;;;6.47;;
47866;SDS011;33628;50.806;11.586;2023-07-20T04:58:26;9.98;;;5.30;;
47866;SDS011;33628;50.806;11.586;2023-07-20T05:00:55;10.65;;;5.53;;
47866;SDS011;33628;50.806;11.586;2023-07-20T05:03:22;8.85;;;5.93;;
47866;SDS011;33628;50.806;11.586;2023-07-20T05:05:49;8.02;;;5.32;;
47866;SDS011;33628;50.806;11.586;2023-07-20T05:08:16;9.52;;;5.47;;
47866;SDS011;33628;50.806;11.586;2023-07-20T05:10:43;10.85;;;5.30;;
47866;SDS011;33628;50.806;11.586;2023-07-20T05:13:09;14.65;;;5.72;;
47866;SDS011;33628;50.806;11.586;2023-07-20T05:15:38;10.55;;;5.50;;
47866;SDS011;33628;50.806;11.586;2023-07-20T05:18:07;10.98;;;5.75;;
47866;SDS011;33628;50.806;11.586;2023-07-20T05:20:35;7.13;;;4.80;;
47866;SDS011;33628;50.806;11.586;2023-07-20T05:23:03;6.80;;;4.72;;
47866;SDS011;33628;50.806;11.586;2023-07-20T05:25:30;6.45;;;4.63;;
47866;SDS011;33628;50.806;11.586;2023-07-20T05:27:57;8.93;;;4.43;;
47866;SDS011;33628;50.806;11.586;2023-07-20T05:30:23;9.95;;;5.00;;
47866;SDS011;33628;50.806;11.586;2023-07-20T05:32:51;8.93;;;4.55;;
47866;SDS011;33628;50.806;11.586;2023-07-20T05:35:20;8.95;;;4.60;;
47866;SDS011;33628;50.806;11.586;2023-07-20T05:37:48;7.28;;;4.95;;
47866;SDS011;33628;50.806;11.586;2023-07-20T05:40:14;7.45;;;4.28;;
47866;SDS011;33628;50.806;11.586;2023-07-20T05:42:44;20.48;;;6.50;;
47866;SDS011;33628;50.806;11.586;2023-07-20T05:45:12;8.07;;;4.20;;
47866;SDS011;33628;50.806;11.586;2023-07-20T05:47:39;6.93;;;4.75;;
47866;SDS011;33628;50.806;11.586;2023-07-20T05:50:07;7.55;;;5.07;;
47866;SDS011;33628;50.806;11.586;2023-07-20T05:52:35;7.20;;;4.38;;
47866;SDS011;33628;50.806;11.586;2023-07-20T05:55:01;6.07;;;4.50;;
47866;SDS011;33628;50.806;11.586;2023-07-20T05:57:29;5.70;;;4.30;;
47866;SDS011;33628;50.806;11.586;2023-07-20T05:59:55;6.80;;;3.92;;
47866;SDS011;33628;50.806;11.586;2023-07-20T06:02:22;8.30;;;4.07;;
47866;SDS011;33628;50.806;11.586;2023-07-20T06:04:49;9.15;;;4.40;;
47866;SDS011;33628;50.806;11.586;2023-07-20T06:07:17;6.65;;;4.32;;
47866;SDS011;33628;50.806;11.586;2023-07-20T06:09:44;5.75;;;3.60;;
47866;SDS011;33628;50.806;11.586;2023-07-20T06:12:10;6.57;;;3.97;;
47866;SDS011;33628;50.806;11.586;2023-07-20T06:14:37;4.63;;;3.20;;
47866;SDS011;33628;50.806;11.586;2023-07-20T06:17:04;5.38;;;3.85;;
47866;SDS011;33628;50.806;11.586;2023-07-20T06:19:31;8.18;;;3.60;;
47866;SDS011;33628;50.806;11.586;2023-07-20T06:21:58;8.38;;;3.08;;
47866;SDS011;33628;50.806;11.586;2023-07-20T06:24:26;5.53;;;3.30;;
47866;SDS011;33628;50.806;11.586;2023-07-20T06:26:53;4.78;;;3.15;;
47866;SDS011;33628;50.806;11.586;2023-07-20T06:29:19;5.22;;;3.05;;
47866;SDS011;33628;50.806;11.586;2023-07-20T06:31:46;9.50;;;3.63;;
47866;SDS011;33628;50.806;11.586;2023-07-20T06:34:14;3.65;;;2.85;;
47866;SDS011;33628;50.806;11.586;2023-07-20T06:36:40;6.05;;;3.63;;
47866;SDS011;33628;50.806;11.586;2023-07-20T06:39:07;6.00;;;3.17;;
47866;SDS011;33628;50.806;11.586;2023-07-20T06:41:35;5.93;;;3.28;;
47866;SDS011;33628;50.806;11.586;2023-07-20T06:44:02;5.05;;;2.88;;
47866;SDS011;33628;50.806;11.586;2023-07-20T06:46:29;4.68;;;3.10;;
47866;SDS011;33628;50.806;11.586;2023-07-20T06:48:55;6.20;;;3.10;;
47866;SDS011;33628;50.806;11.586;2023-07-20T06:51:22;6.32;;;3.03;;
47866;SDS011;33628;50.806;11.586;2023-07-20T06:53:49;5.40;;;3.10;;
47866;SDS011;33628;50.806;11.586;2023-07-20T06:56:16;5.65;;;2.75;;
47866;SDS011;33628;50.806;11.586;2023-07-20T06:58:44;5.07;;;3.33;;
47866;SDS011;33628;50.806;11.586;2023-07-20T07:01:10;6.07;;;2.65;;
47866;SDS011;33628;50.806;11.586;2023-07-20T07:03:37;2.78;;;2.42;;
47866;SDS011;33628;50.806;11.586;2023-07-20T07:06:04;5.32;;;3.08;;
47866;SDS011;33628;50.806;11.586;2023-07-20T07:08:31;6.75;;;2.72;;
47866;SDS011;33628;50.806;11.586;2023-07-20T07:10:58;4.93;;;2.80;;
47866;SDS011;33628;50.806;11.586;2023-07-20T07:13:24;4.45;;;2.83;;
47866;SDS011;33628;50.806;11.586;2023-07-20T07:15:52;3.72;;;2.35;;
47866;SDS011;33628;50.806;11.586;2023-07-20T07:18:19;6.63;;;2.90;;
47866;SDS011;33628;50.806;11.586;2023-07-20T07:20:52;4.97;;;2.90;;
47866;SDS011;33628;50.806;11.586;2023-07-20T07:23:19;4.32;;;2.60;;
47866;SDS011;33628;50.806;11.586;2023-07-20T07:25:46;7.70;;;2.40;;
47866;SDS011;33628;50.806;11.586;2023-07-20T07:28:13;5.70;;;2.72;;
47866;SDS011;33628;50.806;11.586;2023-07-20T07:30:40;4.05;;;2.47;;
47866;SDS011;33628;50.806;11.586;2023-07-20T07:37:07;3.40;;;2.50;;
47866;SDS011;33628;50.806;11.586;2023-07-20T07:39:34;5.65;;;2.63;;
47866;SDS011;33628;50.806;11.586;2023-07-20T07:42:01;4.57;;;2.40;;
47866;SDS011;33628;50.806;11.586;2023-07-20T07:44:28;4.35;;;2.90;;
47866;SDS011;33628;50.806;11.586;2023-07-20T07:46:55;3.28;;;2.67;;
47866;SDS011;33628;50.806;11.586;2023-07-20T07:49:21;4.15;;;2.53;;
47866;SDS011;33628;50.806;11.586;2023-07-20T07:51:48;4.15;;;2.45;;
47866;SDS011;33628;50.806;11.586;2023-07-20T07:54:16;6.63;;;2.28;;
47866;SDS011;33628;50.806;11.586;2023-07-20T07:56:43;5.43;;;2.20;;
47866;SDS011;33628;50.806;11.586;2023-07-20T07:59:10;3.10;;;1.52;;
47866;SDS011;33628;50.806;11.586;2023-07-20T08:01:37;2.72;;;1.48;;
47866;SDS011;33628;50.806;11.586;2023-07-20T08:04:03;2.33;;;1.38;;
47866;SDS011;33628;50.806;11.586;2023-07-20T08:06:30;2.70;;;1.40;;
47866;SDS011;33628;50.806;11.586;2023-07-20T08:08:57;2.25;;;1.17;;
47866;SDS011;33628;50.806;11.586;2023-07-20T08:11:25;3.25;;;1.50;;
47866;SDS011;33628;50.806;11.586;2023-07-20T08:13:52;2.67;;;1.45;;
47866;SDS011;33628;50.806;11.586;2023-07-20T08:16:18;2.75;;;1.30;;
47866;SDS011;33628;50.806;11.586;2023-07-20T08:18:46;2.63;;;1.20;;
47866;SDS011;33628;50.806;11.586;2023-07-20T08:21:13;1.35;;;0.98;;
47866;SDS011;33628;50.806;11.586;2023-07-20T08:23:41;2.33;;;1.05;;
47866;SDS011;33628;50.806;11.586;2023-07-20T08:26:07;2.83;;;1.20;;
47866;SDS011;33628;50.806;11.586;2023-07-20T08:28:35;2.65;;;1.20;;
47866;SDS011;33628;50.806;11.586;2023-07-20T08:31:05;2.63;;;1.27;;
47866;SDS011;33628;50.806;11.586;2023-07-20T08:33:35;2.67;;;1.25;;
47866;SDS011;33628;50.806;11.586;2023-07-20T08:36:01;1.40;;;1.23;;
47866;SDS011;33628;50.806;11.586;2023-07-20T08:38:29;1.48;;;1.00;;
47866;SDS011;33628;50.806;11.586;2023-07-20T08:40:56;5.32;;;1.23;;
47866;SDS011;33628;50.806;11.586;2023-07-20T08:43:26;3.72;;;1.40;;
47866;SDS011;33628;50.806;11.586;2023-07-20T08:45:55;1.15;;;1.05;;
47866;SDS011;33628;50.806;11.586;2023-07-20T08:48:22;1.80;;;1.20;;
47866;SDS011;33628;50.806;11.586;2023-07-20T08:50:50;2.33;;;1.35;;
47866;SDS011;33628;50.806;11.586;2023-07-20T08:53:18;3.05;;;2.30;;
47866;SDS011;33628;50.806;11.586;2023-07-20T08:55:45;12.25;;;7.45;;
47866;SDS011;33628;50.806;11.586;2023-07-20T08:58:13;2.13;;;1.50;;
47866;SDS011;33628;50.806;11.586;2023-07-20T09:00:40;3.60;;;2.38;;
47866;SDS011;33628;50.806;11.586;2023-07-20T09:03:09;3.25;;;1.83;;
47866;SDS011;33628;50.806;11.586;2023-07-20T09:05:36;2.63;;;1.13;;
47866;SDS011;33628;50.806;11.586;2023-07-20T09:08:06;1.48;;;1.10;;
47866;SDS011;33628;50.806;11.586;2023-07-20T09:10:33;3.22;;;1.42;;
47866;SDS011;33628;50.806;11.586;2023-07-20T09:13:00;1.10;;;1.02;;
47866;SDS011;33628;50.806;11.586;2023-07-20T09:15:28;2.00;;;1.40;;
47866;SDS011;33628;50.806;11.586;2023-07-20T09:17:55;2.65;;;1.05;;
47866;SDS011;33628;50.806;11.586;2023-07-20T09:20:23;4.00;;;2.35;;
47866;SDS011;33628;50.806;11.586;2023-07-20T09:22:50;1.48;;;1.25;;
47866;SDS011;33628;50.806;11.586;2023-07-20T09:25:19;3.78;;;2.20;;
47866;SDS011;33628;50.806;11.586;2023-07-20T09:27:46;4.13;;;2.10;;
47866;SDS011;33628;50.806;11.586;2023-07-20T09:30:13;2.55;;;2.00;;
47866;SDS011;33628;50.806;11.586;2023-07-20T09:32:42;3.38;;;1.98;;
47866;SDS011;33628;50.806;11.586;2023-07-20T09:35:12;1.50;;;1.40;;
47866;SDS011;33628;50.806;11.586;2023-07-20T09:37:48;2.55;;;1.65;;
47866;SDS011;33628;50.806;11.586;2023-07-20T09:40:18;1.87;;;1.60;;
47866;SDS011;33628;50.806;11.586;2023-07-20T09:42:45;1.30;;;1.17;;
47866;SDS011;33628;50.806;11.586;2023-07-20T09:45:12;4.40;;;1.80;;
47866;SDS011;33628;50.806;11.586;2023-07-20T09:47:39;2.65;;;1.58;;
47866;SDS011;33628;50.806;11.586;2023-07-20T09:50:07;1.85;;;1.48;;
47866;SDS011;33628;50.806;11.586;2023-07-20T09:52:38;1.27;;;1.10;;
47866;SDS011;33628;50.806;11.586;2023-07-20T09:55:08;2.50;;;1.40;;
47866;SDS011;33628;50.806;11.586;2023-07-20T09:57:35;3.42;;;2.15;;
47866;SDS011;33628;50.806;11.586;2023-07-20T10:00:02;3.13;;;2.05;;
47866;SDS011;33628;50.806;11.586;2023-07-20T10:02:40;2.38;;;1.63;;
47866;SDS011;33628;50.806;11.586;2023-07-20T10:05:08;2.38;;;1.70;;
47866;SDS011;33628;50.806;11.586;2023-07-20T10:07:40;3.20;;;1.25;;
47866;SDS011;33628;50.806;11.586;2023-07-20T10:10:11;2.30;;;1.42;;
47866;SDS011;33628;50.806;11.586;2023-07-20T10:12:40;4.10;;;2.15;;
47866;SDS011;33628;50.806;11.586;2023-07-20T10:15:10;4.72;;;1.58;;
47866;SDS011;33628;50.806;11.586;2023-07-20T10:17:40;2.53;;;1.60;;
47866;SDS011;33628;50.806;11.586;2023-07-20T10:20:16;2.40;;;1.45;;
47866;SDS011;33628;50.806;11.586;2023-07-20T10:22:43;2.72;;;1.60;;
47866;SDS011;33628;50.806;11.586;2023-07-20T10:25:12;3.28;;;1.35;;
47866;SDS011;33628;50.806;11.586;2023-07-20T10:27:39;4.30;;;1.42;;
47866;SDS011;33628;50.806;11.586;2023-07-20T10:30:08;2.38;;;1.50;;
47866;SDS011;33628;50.806;11.586;2023-07-20T10:32:38;1.88;;;1.45;;
47866;SDS011;33628;50.806;11.586;2023-07-20T10:35:11;2.08;;;1.88;;
47866;SDS011;33628;50.806;11.586;2023-07-20T10:37:46;5.57;;;3.35;;
47866;SDS011;33628;50.806;11.586;2023-07-20T10:40:28;5.25;;;3.10;;
47866;SDS011;33628;50.806;11.586;2023-07-20T10:43:00;4.85;;;2.90;;
47866;SDS011;33628;50.806;11.586;2023-07-20T10:48:16;4.32;;;3.30;;
47866;SDS011;33628;50.806;11.586;2023-07-20T10:50:45;7.47;;;3.25;;
47866;SDS011;33628;50.806;11.586;2023-07-20T10:53:34;4.38;;;3.03;;
47866;SDS011;33628;50.806;11.586;2023-07-20T10:56:08;5.05;;;3.88;;
47866;SDS011;33628;50.806;11.586;2023-07-20T10:58:37;4.72;;;4.03;;
47866;SDS011;33628;50.806;11.586;2023-07-20T11:01:04;4.78;;;3.75;;
47866;SDS011;33628;50.806;11.586;2023-07-20T11:03:33;5.35;;;3.53;;
47866;SDS011;33628;50.806;11.586;2023-07-20T11:08:55;4.13;;;2.90;;
47866;SDS011;33628;50.806;11.586;2023-07-20T11:11:27;3.70;;;2.80;;
47866;SDS011;33628;50.806;11.586;2023-07-20T11:13:55;6.53;;;2.80;;
47866;SDS011;33628;50.806;11.586;2023-07-20T11:16:39;3.67;;;2.33;;
47866;SDS011;33628;50.806;11.586;2023-07-20T11:19:13;2.60;;;2.40;;
47866;SDS011;33628;50.806;11.586;2023-07-20T11:21:44;1.65;;;1.42;;
47866;SDS011;33628;50.806;11.586;2023-07-20T11:24:12;2.10;;;1.38;;
47866;SDS011;33628;50.806;11.586;2023-07-20T11:26:41;1.77;;;1.40;;
47866;SDS011;33628;50.806;11.586;2023-07-20T11:29:09;1.75;;;1.10;;
47866;SDS011;33628;50.806;11.586;2023-07-20T11:31:36;1.13;;;1.00;;
47866;SDS011;33628;50.806;11.586;2023-07-20T11:34:03;1.33;;;0.80;;
47866;SDS011;33628;50.806;11.586;2023-07-20T11:36:30;0.57;;;0.57;;
47866;SDS011;33628;50.806;11.586;2023-07-20T11:38:58;0.50;;;0.50;;
47866;SDS011;33628;50.806;11.586;2023-07-20T11:41:26;3.55;;;0.90;;
47866;SDS011;33628;50.806;11.586;2023-07-20T11:43:55;1.10;;;0.65;;
47866;SDS011;33628;50.806;11.586;2023-07-20T11:46:22;0.98;;;0.68;;
47866;SDS011;33628;50.806;11.586;2023-07-20T11:48:49;0.88;;;0.80;;
47866;SDS011;33628;50.806;11.586;2023-07-20T11:51:23;0.90;;;0.80;;
47866;SDS011;33628;50.806;11.586;2023-07-20T11:53:50;2.33;;;0.70;;
47866;SDS011;33628;50.806;11.586;2023-07-20T11:56:20;1.42;;;1.10;;
47866;SDS011;33628;50.806;11.586;2023-07-20T11:58:48;3.30;;;1.17;;
47866;SDS011;33628;50.806;11.586;2023-07-20T12:01:17;3.65;;;0.70;;
47866;SDS011;33628;50.806;11.586;2023-07-20T12:03:44;1.95;;;0.60;;
47866;SDS011;33628;50.806;11.586;2023-07-20T12:06:10;2.13;;;0.90;;
47866;SDS011;33628;50.806;11.586;2023-07-20T12:08:41;1.38;;;1.20;;
47866;SDS011;33628;50.806;11.586;2023-07-20T12:11:08;1.92;;;1.30;;
47866;SDS011;33628;50.806;11.586;2023-07-20T12:13:36;2.10;;;1.15;;
47866;SDS011;33628;50.806;11.586;2023-07-20T12:16:09;1.90;;;1.20;;
47866;SDS011;33628;50.806;11.586;2023-07-20T12:18:39;2.53;;;0.90;;
47866;SDS011;33628;50.806;11.586;2023-07-20T12:21:06;1.20;;;0.90;;
47866;SDS011;33628;50.806;11.586;2023-07-20T12:23:37;1.35;;;1.20;;
47866;SDS011;33628;50.806;11.586;2023-07-20T12:26:06;1.58;;;1.40;;
47866;SDS011;33628;50.806;11.586;2023-07-20T12:28:33;3.63;;;1.50;;
47866;SDS011;33628;50.806;11.586;2023-07-20T12:31:04;1.10;;;0.95;;
47866;SDS011;33628;50.806;11.586;2023-07-20T12:33:32;1.65;;;1.17;;
47866;SDS011;33628;50.806;11.586;2023-07-20T12:36:00;1.50;;;1.08;;
47866;SDS011;33628;50.806;11.586;2023-07-20T12:38:27;1.67;;;1.20;;
47866;SDS011;33628;50.806;11.586;2023-07-20T12:40:54;2.90;;;1.05;;
47866;SDS011;33628;50.806;11.586;2023-07-20T12:43:21;1.05;;;0.80;;
47866;SDS011;33628;50.806;11.586;2023-07-20T12:45:48;2.53;;;1.00;;
47866;SDS011;33628;50.806;11.586;2023-07-20T12:48:14;1.27;;;1.00;;
47866;SDS011;33628;50.806;11.586;2023-07-20T12:50:41;1.42;;;1.10;;
47866;SDS011;33628;50.806;11.586;2023-07-20T12:53:12;1.08;;;0.68;;
47866;SDS011;33628;50.806;11.586;2023-07-20T12:55:39;0.75;;;0.65;;
47866;SDS011;33628;50.806;11.586;2023-07-20T12:58:07;2.28;;;1.00;;
47866;SDS011;33628;50.806;11.586;2023-07-20T13:00:34;2.05;;;0.70;;
47866;SDS011;33628;50.806;11.586;2023-07-20T13:03:01;1.25;;;0.80;;
47866;SDS011;33628;50.806;11.586;2023-07-20T13:05:32;0.73;;;0.73;;
47866;SDS011;33628;50.806;11.586;2023-07-20T13:07:59;1.23;;;0.70;;
47866;SDS011;33628;50.806;11.586;2023-07-20T13:10:27;1.38;;;0.73;;
47866;SDS011;33628;50.806;11.586;2023-07-20T13:12:54;3.28;;;0.93;;
47866;SDS011;33628;50.806;11.586;2023-07-20T13:15:23;2.33;;;0.80;;
47866;SDS011;33628;50.806;11.586;2023-07-20T13:17:51;0.73;;;0.60;;
47866;SDS011;33628;50.806;11.586;2023-07-20T13:20:18;0.63;;;0.60;;
47866;SDS011;33628;50.806;11.586;2023-07-20T13:22:45;1.13;;;0.88;;
47866;SDS011;33628;50.806;11.586;2023-07-20T13:25:12;2.05;;;0.75;;
47866;SDS011;33628;50.806;11.586;2023-07-20T13:27:40;1.23;;;0.75;;
47866;SDS011;33628;50.806;11.586;2023-07-20T13:30:07;1.40;;;1.30;;
47866;SDS011;33628;50.806;11.586;2023-07-20T13:32:37;2.78;;;1.02;;
47866;SDS011;33628;50.806;11.586;2023-07-20T13:35:04;1.42;;;0.80;;
47866;SDS011;33628;50.806;11.586;2023-07-20T13:37:31;1.52;;;0.80;;
47866;SDS011;33628;50.806;11.586;2023-07-20T13:39:57;2.58;;;0.73;;
47866;SDS011;33628;50.806;11.586;2023-07-20T13:42:24;1.38;;;0.70;;
47866;SDS011;33628;50.806;11.586;2023-07-20T13:44:53;1.58;;;0.70;;
47866;SDS011;33628;50.806;11.586;2023-07-20T13:47:19;4.07;;;1.00;;
47866;SDS011;33628;50.806;11.586;2023-07-20T13:49:46;1.58;;;1.20;;
47866;SDS011;33628;50.806;11.586;2023-07-20T13:52:12;0.82;;;0.77;;
47866;SDS011;33628;50.806;11.586;2023-07-20T13:54:40;0.68;;;0.68;;
47866;SDS011;33628;50.806;11.586;2023-07-20T13:57:06;1.83;;;0.57;;
47866;SDS011;33628;50.806;11.586;2023-07-20T13:59:33;0.73;;;0.73;;
47866;SDS011;33628;50.806;11.586;2023-07-20T14:02:01;0.68;;;0.63;;
47866;SDS011;33628;50.806;11.586;2023-07-20T14:04:30;0.93;;;0.73;;
47866;SDS011;33628;50.806;11.586;2023-07-20T14:06:58;0.60;;;0.60;;
47866;SDS011;33628;50.806;11.586;2023-07-20T14:09:27;1.00;;;0.85;;
47866;SDS011;33628;50.806;11.586;2023-07-20T14:11:53;2.00;;;0.68;;
47866;SDS011;33628;50.806;11.586;2023-07-20T14:14:20;2.88;;;0.70;;
47866;SDS011;33628;50.806;11.586;2023-07-20T14:16:47;1.67;;;0.73;;
47866;SDS011;33628;50.806;11.586;2023-07-20T14:19:15;0.60;;;0.50;;
47866;SDS011;33628;50.806;11.586;2023-07-20T14:21:41;1.17;;;0.73;;
47866;SDS011;33628;50.806;11.586;2023-07-20T14:24:08;0.63;;;0.63;;
47866;SDS011;33628;50.806;11.586;2023-07-20T14:26:35;1.65;;;0.90;;
47866;SDS011;33628;50.806;11.586;2023-07-20T14:29:01;0.77;;;0.75;;
47866;SDS011;33628;50.806;11.586;2023-07-20T14:31:28;0.80;;;0.70;;
47866;SDS011;33628;50.806;11.586;2023-07-20T14:33:55;0.93;;;0.60;;
47866;SDS011;33628;50.806;11.586;2023-07-20T14:36:23;1.52;;;1.02;;
47866;SDS011;33628;50.806;11.586;2023-07-20T14:38:50;1.02;;;0.98;;
47866;SDS011;33628;50.806;11.586;2023-07-20T14:41:16;0.80;;;0.80;;
47866;SDS011;33628;50.806;11.586;2023-07-20T14:43:43;1.95;;;0.90;;